Time;durP1;ratioP1;P1;durP2;ratioP2;P2;SDS_P1;SDS_P2;PMS_P1;PMS_P2;Temp;Humidity;BMP_temperature;BMP_pressure;BME280_temperature;BME280_humidity;BME280_pressure;Samples;Min_cycle;Max_cycle;Signal;HPM_P1;HPM_P2
2023/01/14 00:01:10;;;;;;;21.80;5.70;;;7.30;99.90;;;;;;5002112;28;20485;-82
2023/01/14 00:03:37;;;;;;;32.10;9.33;;;7.40;99.90;;;;;;5002054;28;20462;-83
2023/01/14 00:06:04;;;;;;;35.40;13.23;;;7.20;99.90;;;;;;5001878;28;20460;-82
2023/01/14 00:08:31;;;;;;;39.10;13.13;;;7.10;99.90;;;;;;5002484;28;20482;-84
2023/01/14 00:11:02;;;;;;;31.87;13.63;;;7.20;99.90;;;;;;5000998;28;20470;-82
2023/01/14 00:13:28;;;;;;;35.73;14.90;;;7.10;99.90;;;;;;5001755;28;20459;-82
2023/01/14 00:15:57;;;;;;;26.17;15.90;;;7.10;99.90;;;;;;5000876;28;20454;-84
2023/01/14 00:18:25;;;;;;;36.43;15.60;;;7.10;99.90;;;;;;5001487;28;20456;-83
2023/01/14 00:20:57;;;;;;;23.50;14.13;;;7.10;99.90;;;;;;5001810;28;21001;-81
2023/01/14 00:23:24;;;;;;;33.57;12.80;;;7.10;99.90;;;;;;5002256;28;20458;-83
2023/01/14 00:25:50;;;;;;;24.70;13.17;;;7.00;99.90;;;;;;5001773;28;20458;-83
2023/01/14 00:28:17;;;;;;;29.53;14.70;;;6.90;99.90;;;;;;5001515;28;21031;-84
2023/01/14 00:30:44;;;;;;;29.40;15.63;;;6.80;99.90;;;;;;5001575;28;20478;-83
2023/01/14 00:33:11;;;;;;;18.40;16.70;;;6.70;99.90;;;;;;5001185;28;20465;-82
2023/01/14 00:35:39;;;;;;;21.20;16.70;;;6.70;99.90;;;;;;5001017;28;20454;-87
2023/01/14 00:38:05;;;;;;;31.60;28.30;;;6.70;99.90;;;;;;5002069;28;20821;-85
2023/01/14 00:40:32;;;;;;;43.27;29.37;;;6.70;99.90;;;;;;5001550;28;20474;-83
2023/01/14 00:42:59;;;;;;;38.10;34.20;;;6.60;99.90;;;;;;5001853;28;20978;-82
2023/01/14 00:45:26;;;;;;;46.53;43.20;;;6.60;99.90;;;;;;5001101;28;20455;-84
2023/01/14 00:47:53;;;;;;;47.20;44.00;;;6.50;99.90;;;;;;4981704;28;20574;-83
2023/01/14 00:50:20;;;;;;;61.30;55.97;;;6.50;99.90;;;;;;4992007;28;20997;-82
2023/01/14 00:52:48;;;;;;;64.13;59.27;;;6.40;99.90;;;;;;5001618;28;20453;-83
2023/01/14 00:55:15;;;;;;;70.20;65.87;;;6.40;99.90;;;;;;5000550;28;20450;-84
2023/01/14 00:57:41;;;;;;;75.87;70.97;;;6.40;99.90;;;;;;5000561;28;20450;-82
2023/01/14 01:00:09;;;;;;;84.97;80.20;;;6.30;99.90;;;;;;5000950;28;20466;-81
2023/01/14 01:02:36;;;;;;;101.23;96.23;;;6.30;99.90;;;;;;5001213;28;20454;-82
2023/01/14 01:05:03;;;;;;;129.53;123.97;;;6.30;99.90;;;;;;5000860;28;20457;-84
2023/01/14 01:07:29;;;;;;;163.97;155.17;;;6.30;99.90;;;;;;5000695;28;20489;-82
2023/01/14 01:09:58;;;;;;;175.57;166.83;;;6.20;99.90;;;;;;5000854;28;20450;-82
2023/01/14 01:12:24;;;;;;;139.97;133.17;;;6.20;99.90;;;;;;5000937;28;20454;-81
2023/01/14 01:14:51;;;;;;;162.70;154.60;;;6.30;99.90;;;;;;4999947;28;20458;-84
2023/01/14 01:17:18;;;;;;;158.57;151.70;;;6.50;99.90;;;;;;5000553;28;20457;-82
2023/01/14 01:19:46;;;;;;;152.10;143.80;;;6.60;99.90;;;;;;5000855;28;20454;-82
2023/01/14 01:22:13;;;;;;;115.33;108.83;;;6.70;99.90;;;;;;5001205;28;20450;-82
2023/01/14 01:24:40;;;;;;;85.13;80.67;;;6.80;99.90;;;;;;5004123;28;20453;-82
2023/01/14 01:27:08;;;;;;;56.10;52.27;;;7.00;99.90;;;;;;5004347;28;20477;-82
2023/01/14 01:29:34;;;;;;;38.43;35.37;;;7.10;99.90;;;;;;5004325;28;20454;-84
2023/01/14 01:32:01;;;;;;;39.43;26.03;;;7.20;99.90;;;;;;5004161;28;20474;-82
2023/01/14 01:34:28;;;;;;;33.33;18.13;;;7.20;99.90;;;;;;5004616;28;20924;-83
2023/01/14 01:36:55;;;;;;;22.30;15.53;;;7.20;99.90;;;;;;5004047;28;20458;-82
2023/01/14 01:39:21;;;;;;;26.73;13.63;;;7.30;99.90;;;;;;5004006;28;20465;-82
2023/01/14 01:41:48;;;;;;;24.50;13.20;;;7.40;99.90;;;;;;5003985;28;20474;-84
2023/01/14 01:44:52;;;;;;;29.43;10.60;;;7.40;99.90;;;;;;5004730;28;20457;-83
2023/01/14 01:47:22;;;;;;;27.70;8.20;;;7.40;99.90;;;;;;4989372;28;20473;-82
2023/01/14 01:49:49;;;;;;;23.77;8.40;;;7.50;99.90;;;;;;5004889;28;20454;-82
2023/01/14 01:52:19;;;;;;;25.93;7.20;;;7.50;99.90;;;;;;5004203;28;20454;-82
2023/01/14 01:54:49;;;;;;;19.30;6.70;;;7.60;99.90;;;;;;5004944;28;20460;-82
2023/01/14 01:57:17;;;;;;;21.93;6.13;;;7.60;99.90;;;;;;5003673;28;20995;-83
2023/01/14 01:59:53;;;;;;;30.40;6.13;;;7.60;99.90;;;;;;5004606;28;20464;-83
2023/01/14 02:02:22;;;;;;;21.00;5.33;;;7.60;99.90;;;;;;5004150;28;20449;-84
2023/01/14 02:04:48;;;;;;;22.03;6.57;;;7.50;99.90;;;;;;5004129;28;20465;-83
2023/01/14 02:07:17;;;;;;;26.80;6.40;;;7.60;99.90;;;;;;5003110;28;20474;-84
2023/01/14 02:09:45;;;;;;;18.13;5.97;;;7.60;99.90;;;;;;5003961;28;20852;-82
2023/01/14 02:12:29;;;;;;;24.30;6.00;;;7.60;99.90;;;;;;5003408;28;20461;-83
2023/01/14 02:15:08;;;;;;;21.47;5.40;;;7.60;99.90;;;;;;5003205;28;20538;-85
2023/01/14 02:17:47;;;;;;;26.57;5.73;;;7.50;99.90;;;;;;5005045;28;20441;-82
2023/01/14 02:20:21;;;;;;;29.30;5.23;;;7.60;99.90;;;;;;4983666;28;20565;-83
2023/01/14 02:23:18;;;;;;;32.57;6.17;;;7.50;99.90;;;;;;4989198;28;20469;-82
2023/01/14 02:26:16;;;;;;;18.50;4.23;;;7.40;99.90;;;;;;4982795;28;20454;-82
2023/01/14 02:29:00;;;;;;;18.93;5.70;;;7.40;99.90;;;;;;5003971;28;20474;-82
2023/01/14 02:31:31;;;;;;;23.33;6.40;;;7.30;99.90;;;;;;5004176;28;20484;-83
2023/01/14 02:34:06;;;;;;;20.10;5.83;;;7.30;99.90;;;;;;5003498;28;20454;-85
2023/01/14 02:36:40;;;;;;;18.00;5.10;;;7.30;99.90;;;;;;5003680;28;20457;-83
2023/01/14 02:39:15;;;;;;;13.40;6.50;;;7.30;99.90;;;;;;5003479;28;20453;-83
2023/01/14 02:44:37;;;;;;;26.13;6.83;;;7.30;99.90;;;;;;5002442;28;20481;-82
2023/01/14 02:47:08;;;;;;;16.57;6.23;;;7.10;99.90;;;;;;5003096;28;20836;-82
2023/01/14 02:49:41;;;;;;;13.93;5.57;;;7.00;99.90;;;;;;5003487;28;20460;-81
2023/01/14 02:52:08;;;;;;;29.77;8.60;;;6.90;99.90;;;;;;5002679;28;20458;-83
2023/01/14 02:54:36;;;;;;;26.73;9.60;;;6.80;99.90;;;;;;5003605;28;20464;-83
2023/01/14 02:57:07;;;;;;;22.47;11.13;;;6.80;99.90;;;;;;5003082;28;20458;-82
2023/01/14 02:59:46;;;;;;;24.47;12.80;;;6.70;99.90;;;;;;5003172;28;20461;-82
2023/01/14 03:02:42;;;;;;;16.63;13.07;;;6.70;99.90;;;;;;5003120;28;20456;-85
2023/01/14 03:05:35;;;;;;;20.43;12.77;;;6.70;99.90;;;;;;5002825;28;20458;-82
2023/01/14 03:08:11;;;;;;;29.30;14.60;;;6.60;99.90;;;;;;5003085;28;20509;-83
2023/01/14 03:10:45;;;;;;;17.57;14.07;;;6.50;99.90;;;;;;5002996;28;20474;-82
2023/01/14 03:13:17;;;;;;;23.30;18.20;;;6.50;99.90;;;;;;5002884;28;20453;-85
2023/01/14 03:15:50;;;;;;;29.10;26.37;;;6.30;99.90;;;;;;5002671;28;20854;-84
2023/01/14 03:18:24;;;;;;;36.10;33.30;;;6.30;99.90;;;;;;5001919;28;20457;-83
2023/01/14 03:20:56;;;;;;;35.87;33.40;;;6.30;99.90;;;;;;5002972;28;20474;-82
2023/01/14 03:23:25;;;;;;;34.10;31.87;;;6.20;99.90;;;;;;5002853;28;20461;-82
2023/01/14 03:25:54;;;;;;;28.23;26.50;;;6.30;99.90;;;;;;5003250;28;20458;-83
2023/01/14 03:28:25;;;;;;;34.33;31.70;;;6.40;99.90;;;;;;5002708;28;20470;-86
2023/01/14 03:30:57;;;;;;;37.80;34.70;;;6.30;99.90;;;;;;5002503;28;20482;-82
2023/01/14 03:33:30;;;;;;;41.87;38.90;;;6.30;99.90;;;;;;5002316;28;20446;-83
2023/01/14 03:35:58;;;;;;;39.00;35.20;;;6.30;99.90;;;;;;5001772;28;20465;-83
2023/01/14 03:38:30;;;;;;;35.63;32.47;;;6.20;99.90;;;;;;5002392;28;20453;-83
2023/01/14 03:40:59;;;;;;;34.20;30.90;;;6.30;99.90;;;;;;5002514;28;20480;-85
2023/01/14 03:43:32;;;;;;;29.13;25.67;;;6.30;99.90;;;;;;5002351;28;20450;-82
2023/01/14 03:45:59;;;;;;;24.30;19.70;;;6.30;99.90;;;;;;5001052;28;20450;-85
2023/01/14 03:48:27;;;;;;;26.90;24.03;;;6.40;99.90;;;;;;5001202;28;20481;-81
2023/01/14 03:51:01;;;;;;;27.30;23.63;;;6.30;99.90;;;;;;5002330;28;20480;-82
2023/01/14 03:53:34;;;;;;;26.43;24.57;;;6.30;99.90;;;;;;4999410;28;20454;-87
2023/01/14 03:56:11;;;;;;;27.90;25.67;;;6.30;99.90;;;;;;4997576;28;20450;-83
2023/01/14 03:58:43;;;;;;;41.43;31.23;;;6.30;99.90;;;;;;4999749;28;20453;-83
2023/01/14 04:01:15;;;;;;;27.00;24.90;;;6.20;99.90;;;;;;5002013;28;20860;-83
2023/01/14 04:03:44;;;;;;;30.33;28.53;;;6.30;99.90;;;;;;5002280;28;20458;-85
2023/01/14 04:06:13;;;;;;;32.47;29.27;;;6.20;99.90;;;;;;5002097;28;20449;-82
2023/01/14 04:08:40;;;;;;;30.30;27.50;;;6.30;99.90;;;;;;5002081;28;21027;-82
2023/01/14 04:11:08;;;;;;;29.73;23.37;;;6.40;99.90;;;;;;5002198;28;20478;-82
2023/01/14 04:16:19;;;;;;;18.60;16.77;;;6.40;99.90;;;;;;5001788;28;20454;-84
2023/01/14 04:18:47;;;;;;;21.93;20.13;;;6.50;99.90;;;;;;5002553;28;20450;-82
2023/01/14 04:21:14;;;;;;;25.37;17.80;;;6.50;99.90;;;;;;5002223;28;20497;-82
2023/01/14 04:23:41;;;;;;;19.33;17.80;;;6.50;99.90;;;;;;5002491;28;20602;-82
2023/01/14 04:26:07;;;;;;;21.67;18.77;;;6.50;99.90;;;;;;5002236;28;20454;-82
2023/01/14 04:28:34;;;;;;;19.30;17.60;;;6.50;99.90;;;;;;5003336;28;20474;-83
2023/01/14 04:31:01;;;;;;;18.13;16.73;;;6.60;99.90;;;;;;5003450;28;20486;-83
2023/01/14 04:33:27;;;;;;;24.53;15.97;;;6.60;99.90;;;;;;5002996;28;20526;-83
2023/01/14 04:35:55;;;;;;;32.83;18.77;;;6.70;99.90;;;;;;5002808;28;20458;-83
2023/01/14 04:38:23;;;;;;;18.43;13.40;;;6.60;99.90;;;;;;5002013;28;20450;-86
2023/01/14 04:40:50;;;;;;;19.43;12.10;;;6.70;99.90;;;;;;5002200;28;20478;-83
2023/01/14 04:43:16;;;;;;;19.03;10.20;;;6.70;99.90;;;;;;5003345;28;20454;-81
2023/01/14 04:45:43;;;;;;;16.83;8.20;;;6.70;99.90;;;;;;5002201;28;20512;-83
2023/01/14 04:48:10;;;;;;;14.60;9.80;;;6.80;99.90;;;;;;5001425;28;20306;-82
2023/01/14 04:50:44;;;;;;;21.27;7.90;;;6.70;99.90;;;;;;5001602;28;20473;-83
2023/01/14 04:53:15;;;;;;;17.73;8.90;;;6.70;99.90;;;;;;5000662;28;20453;-83
2023/01/14 04:55:43;;;;;;;30.33;9.23;;;6.70;99.90;;;;;;5001571;28;20450;-83
2023/01/14 04:58:13;;;;;;;22.53;8.80;;;6.60;99.90;;;;;;5001430;28;20446;-82
2023/01/14 05:00:41;;;;;;;13.90;6.23;;;6.70;99.90;;;;;;5000915;28;20470;-83
2023/01/14 05:03:10;;;;;;;11.20;5.03;;;6.80;99.90;;;;;;5001340;28;20461;-83
2023/01/14 05:05:38;;;;;;;17.83;5.60;;;6.80;99.90;;;;;;5001476;28;20979;-83
2023/01/14 05:08:06;;;;;;;11.43;6.30;;;6.80;99.90;;;;;;5000942;28;20474;-83
2023/01/14 05:10:35;;;;;;;24.50;6.20;;;6.80;99.90;;;;;;5001529;28;20474;-84
2023/01/14 05:13:02;;;;;;;17.50;6.43;;;6.70;99.90;;;;;;5000896;28;20450;-83
2023/01/14 05:15:32;;;;;;;8.30;4.30;;;6.60;99.90;;;;;;4990638;28;20466;-83
2023/01/14 05:17:59;;;;;;;40.77;6.63;;;6.50;99.90;;;;;;4981977;28;20447;-83
2023/01/14 05:20:26;;;;;;;24.17;6.23;;;6.40;99.90;;;;;;4982051;28;20848;-83
2023/01/14 05:22:58;;;;;;;15.23;6.00;;;6.30;99.90;;;;;;4982143;28;20466;-83
2023/01/14 05:25:25;;;;;;;17.50;6.13;;;6.30;99.90;;;;;;4988512;28;20457;-80
2023/01/14 05:27:53;;;;;;;14.90;6.33;;;6.30;99.90;;;;;;5001344;28;20530;-82
2023/01/14 05:30:19;;;;;;;25.73;7.33;;;6.20;99.90;;;;;;5001143;28;20484;-82
2023/01/14 05:32:46;;;;;;;19.63;7.93;;;6.20;99.90;;;;;;5000797;28;20450;-85
2023/01/14 05:35:13;;;;;;;12.00;7.40;;;6.20;99.90;;;;;;5000563;28;20453;-83
2023/01/14 05:37:40;;;;;;;22.63;9.03;;;6.20;99.90;;;;;;5000063;28;20461;-83
2023/01/14 05:40:07;;;;;;;17.80;9.50;;;6.20;99.90;;;;;;4999774;28;20473;-84
2023/01/14 05:48:05;;;;;;;12.83;8.60;;;6.30;99.90;;;;;;5000070;28;20465;-82
2023/01/14 05:50:31;;;;;;;19.67;8.83;;;6.30;99.90;;;;;;5000796;28;20474;-83
2023/01/14 05:52:58;;;;;;;21.93;9.03;;;6.30;99.90;;;;;;4999768;28;20454;-83
2023/01/14 05:55:25;;;;;;;26.97;9.87;;;6.30;99.90;;;;;;4999747;28;20454;-81
2023/01/14 05:57:52;;;;;;;14.17;9.90;;;6.30;99.90;;;;;;5000686;28;20454;-83
2023/01/14 06:08:33;;;;;;;24.20;7.90;;;6.70;99.90;;;;;;4999854;28;20469;-83
2023/01/14 06:11:00;;;;;;;10.17;5.33;;;6.80;99.90;;;;;;5004484;28;20492;-84
2023/01/14 06:13:27;;;;;;;14.50;4.40;;;6.90;99.90;;;;;;5004570;28;20454;-83
2023/01/14 06:15:56;;;;;;;14.53;3.87;;;6.90;99.90;;;;;;5004606;28;20450;-85
2023/01/14 06:18:23;;;;;;;11.07;4.30;;;7.10;99.90;;;;;;5004045;28;20449;-83
2023/01/14 06:20:50;;;;;;;15.80;4.40;;;7.10;99.90;;;;;;5004275;28;20496;-82
2023/01/14 06:23:18;;;;;;;11.00;4.30;;;7.10;99.90;;;;;;5003465;28;20453;-83
2023/01/14 06:25:48;;;;;;;12.73;3.77;;;7.10;99.90;;;;;;5003555;28;20450;-81
2023/01/14 06:28:15;;;;;;;15.20;4.50;;;7.10;99.90;;;;;;5003056;28;20528;-82
2023/01/14 06:30:42;;;;;;;10.20;3.23;;;7.10;99.90;;;;;;5003627;28;20482;-82
2023/01/14 06:33:11;;;;;;;11.87;2.83;;;7.10;99.90;;;;;;5002459;28;20454;-82
2023/01/14 06:35:41;;;;;;;11.27;3.07;;;7.10;99.90;;;;;;5002940;28;20461;-82
2023/01/14 06:38:08;;;;;;;20.33;3.83;;;7.20;99.90;;;;;;5002965;28;20447;-82
2023/01/14 06:40:36;;;;;;;14.67;2.60;;;7.20;99.90;;;;;;5002562;28;20482;-82
2023/01/14 06:43:03;;;;;;;15.40;4.00;;;7.20;99.90;;;;;;5001660;28;20464;-82
2023/01/14 06:45:30;;;;;;;15.40;3.70;;;7.10;99.90;;;;;;4998463;28;20462;-81
2023/01/14 06:47:57;;;;;;;13.60;5.50;;;7.00;99.90;;;;;;4998900;28;20450;-80
2023/01/14 06:50:25;;;;;;;10.77;4.43;;;7.00;99.90;;;;;;4998496;28;20538;-81
2023/01/14 06:52:52;;;;;;;13.70;6.40;;;6.90;99.90;;;;;;4998720;28;20457;-81
2023/01/14 06:55:20;;;;;;;8.53;5.03;;;6.90;99.90;;;;;;5000585;28;20455;-80
2023/01/14 06:57:47;;;;;;;14.63;6.60;;;6.90;99.90;;;;;;4999398;28;20492;-80
2023/01/14 07:00:15;;;;;;;13.60;6.03;;;6.80;99.90;;;;;;5000356;28;20558;-80
2023/01/14 07:02:42;;;;;;;10.83;7.50;;;6.80;99.90;;;;;;5000930;28;20462;-81
2023/01/14 07:05:09;;;;;;;14.03;7.97;;;6.80;99.90;;;;;;4999807;28;20490;-82
2023/01/14 07:07:37;;;;;;;19.93;8.20;;;6.80;99.90;;;;;;4999642;28;20450;-81
2023/01/14 07:10:04;;;;;;;14.03;12.37;;;6.80;99.90;;;;;;5000237;28;20489;-85
2023/01/14 07:12:31;;;;;;;13.57;11.70;;;6.70;99.90;;;;;;4999808;28;20490;-81
2023/01/14 07:14:57;;;;;;;18.73;13.80;;;6.60;99.90;;;;;;5000533;28;20477;-82
2023/01/14 07:17:24;;;;;;;11.70;10.57;;;6.60;99.90;;;;;;5000730;28;20450;-81
2023/01/14 07:19:51;;;;;;;23.67;17.50;;;6.60;99.90;;;;;;5001523;28;20450;-82
2023/01/14 07:22:17;;;;;;;18.03;15.97;;;6.60;99.90;;;;;;5000217;28;20461;-82
2023/01/14 07:24:46;;;;;;;22.60;20.93;;;6.60;99.90;;;;;;5001932;28;20453;-82
2023/01/14 07:27:13;;;;;;;19.70;16.13;;;6.60;99.90;;;;;;5002125;28;20505;-81
2023/01/14 07:29:39;;;;;;;30.67;28.43;;;6.60;99.90;;;;;;5002062;28;20885;-84
2023/01/14 07:32:06;;;;;;;33.00;30.93;;;6.60;99.90;;;;;;5001681;28;20454;-82
2023/01/14 07:34:33;;;;;;;47.53;45.03;;;6.60;99.90;;;;;;5001829;28;20456;-81
2023/01/14 07:36:59;;;;;;;28.57;25.90;;;6.50;99.90;;;;;;5002200;28;20450;-83
2023/01/14 07:39:26;;;;;;;28.40;26.50;;;6.60;99.90;;;;;;5002322;28;20446;-82
2023/01/14 07:41:55;;;;;;;43.10;41.00;;;6.50;99.90;;;;;;5001197;28;20557;-82
2023/01/14 07:44:23;;;;;;;32.20;29.97;;;6.60;99.90;;;;;;5000809;28;20478;-83
2023/01/14 07:46:53;;;;;;;52.17;48.97;;;6.50;99.90;;;;;;5001188;28;20473;-81
2023/01/14 07:49:23;;;;;;;60.67;57.83;;;6.50;99.90;;;;;;4999923;28;20497;-81
2023/01/14 07:51:57;;;;;;;108.63;104.60;;;6.50;99.90;;;;;;4999355;28;20843;-81
2023/01/14 07:54:23;;;;;;;63.83;61.13;;;6.50;99.90;;;;;;4998019;28;20562;-83
2023/01/14 07:56:50;;;;;;;84.10;80.17;;;6.60;99.90;;;;;;4998185;28;21052;-81
2023/01/14 07:59:19;;;;;;;134.23;129.07;;;6.50;99.90;;;;;;5001437;28;20952;-81
2023/01/14 08:01:45;;;;;;;117.83;113.30;;;6.60;99.90;;;;;;5001196;28;20574;-81
2023/01/14 08:04:12;;;;;;;176.67;170.40;;;6.60;99.90;;;;;;5001609;28;20833;-81
2023/01/14 08:06:39;;;;;;;255.90;247.53;;;6.60;99.90;;;;;;5000370;28;20545;-81
2023/01/14 08:09:06;;;;;;;304.70;294.33;;;6.70;99.90;;;;;;5001017;28;20477;-81
2023/01/14 08:11:36;;;;;;;248.97;240.67;;;6.70;99.90;;;;;;5001341;28;20476;-81
2023/01/14 08:14:03;;;;;;;283.07;273.67;;;6.70;99.90;;;;;;5000918;28;20478;-81
2023/01/14 08:16:31;;;;;;;207.40;200.47;;;6.80;99.90;;;;;;5000440;28;20450;-82
2023/01/14 08:18:57;;;;;;;281.97;272.50;;;6.70;99.90;;;;;;5001004;28;20457;-82
2023/01/14 08:21:24;;;;;;;199.33;192.10;;;6.80;99.90;;;;;;5000078;28;20469;-82
2023/01/14 08:23:51;;;;;;;243.50;234.50;;;6.80;99.90;;;;;;5001769;28;20458;-83
2023/01/14 08:26:18;;;;;;;194.93;187.67;;;6.80;99.90;;;;;;5000958;28;20973;-82
2023/01/14 08:28:45;;;;;;;187.20;179.30;;;7.00;99.90;;;;;;5001254;28;20476;-81
2023/01/14 08:31:13;;;;;;;297.97;288.00;;;6.90;99.90;;;;;;4998401;28;20478;-83
2023/01/14 08:33:45;;;;;;;265.77;257.50;;;7.00;99.90;;;;;;5002316;28;20451;-83
2023/01/14 08:36:14;;;;;;;330.73;319.93;;;7.10;99.90;;;;;;4999985;28;20887;-82
2023/01/14 08:38:45;;;;;;;365.87;353.77;;;7.10;99.90;;;;;;4999657;28;21104;-82
2023/01/14 08:41:24;;;;;;;285.73;275.97;;;7.30;99.90;;;;;;4999965;28;21108;-81
2023/01/14 08:44:07;;;;;;;233.93;226.53;;;7.50;99.90;;;;;;5002866;28;20449;-82
2023/01/14 08:46:43;;;;;;;250.23;242.37;;;7.50;99.90;;;;;;5001221;28;20980;-84
2023/01/14 08:49:35;;;;;;;214.43;207.67;;;7.60;99.90;;;;;;5001401;28;20480;-82
2023/01/14 08:52:02;;;;;;;252.87;244.67;;;7.60;99.90;;;;;;4998808;28;20510;-82
2023/01/14 08:54:29;;;;;;;231.30;224.03;;;7.70;99.90;;;;;;5000689;28;20964;-82
2023/01/14 08:56:56;;;;;;;179.70;173.90;;;7.60;99.90;;;;;;5001196;28;20961;-81
2023/01/14 08:59:24;;;;;;;199.60;193.10;;;7.80;99.90;;;;;;5000998;28;20451;-83
2023/01/14 09:01:50;;;;;;;186.53;180.57;;;7.70;99.90;;;;;;5000675;28;20480;-82
2023/01/14 09:04:17;;;;;;;165.27;159.87;;;7.80;99.90;;;;;;5001067;28;20454;-84
2023/01/14 09:17:45;;;;;;;103.33;99.83;;;7.90;99.90;;;;;;5000749;28;20438;-81
2023/01/14 09:20:13;;;;;;;110.23;106.33;;;8.00;99.90;;;;;;5000215;28;20470;-81
2023/01/14 09:22:41;;;;;;;121.37;117.17;;;8.00;99.90;;;;;;4998683;28;20458;-83
2023/01/14 09:25:09;;;;;;;91.67;88.37;;;8.00;99.90;;;;;;4998994;28;20450;-82
2023/01/14 09:27:36;;;;;;;93.43;90.27;;;8.00;99.90;;;;;;4999294;28;20461;-81
2023/01/14 09:30:02;;;;;;;84.33;81.30;;;8.20;99.90;;;;;;4999808;28;20865;-82
2023/01/14 09:32:37;;;;;;;79.10;76.20;;;8.20;99.90;;;;;;5000669;28;20454;-81
2023/01/14 09:35:04;;;;;;;67.63;64.97;;;8.30;99.90;;;;;;4999822;28;20462;-82
2023/01/14 09:37:33;;;;;;;68.17;65.70;;;8.30;99.90;;;;;;4999955;28;20460;-82
2023/01/14 09:40:01;;;;;;;66.00;63.43;;;8.30;99.90;;;;;;4999133;28;20549;-82
2023/01/14 09:42:31;;;;;;;62.53;60.33;;;8.40;99.90;;;;;;5000922;28;20472;-82
2023/01/14 09:45:04;;;;;;;57.43;55.33;;;8.40;99.90;;;;;;5002711;28;20510;-82
2023/01/14 09:47:31;;;;;;;57.67;55.50;;;8.50;99.90;;;;;;5004124;28;20561;-84
2023/01/14 09:49:58;;;;;;;55.50;53.33;;;8.50;99.90;;;;;;5004575;28;20481;-83
2023/01/14 09:52:54;;;;;;;63.50;61.20;;;8.50;99.90;;;;;;5002501;28;20805;-83
2023/01/14 09:55:30;;;;;;;65.17;62.67;;;8.50;99.90;;;;;;4977626;28;20462;-82
2023/01/14 09:58:01;;;;;;;63.17;60.50;;;8.50;99.90;;;;;;5003058;28;20605;-82
2023/01/14 10:00:34;;;;;;;58.30;56.10;;;8.50;99.90;;;;;;5003921;28;20477;-83
2023/01/14 10:03:18;;;;;;;68.20;65.50;;;8.50;99.90;;;;;;5003587;28;20523;-82
2023/01/14 10:05:52;;;;;;;62.90;60.63;;;8.50;99.90;;;;;;5003645;28;20542;-81
2023/01/14 10:08:21;;;;;;;64.20;61.67;;;8.40;99.90;;;;;;5003751;28;20449;-85
2023/01/14 10:10:50;;;;;;;62.47;60.07;;;8.40;99.90;;;;;;5003602;28;20580;-81
2023/01/14 10:13:22;;;;;;;89.80;86.67;;;8.40;99.90;;;;;;5004209;28;20983;-81
2023/01/14 10:15:52;;;;;;;100.07;96.27;;;8.40;99.90;;;;;;5002850;28;20472;-82
2023/01/14 10:18:24;;;;;;;102.33;98.73;;;8.40;99.90;;;;;;5003805;28;20450;-83
2023/01/14 10:20:54;;;;;;;128.80;124.33;;;8.30;99.90;;;;;;5002924;28;20844;-81
2023/01/14 10:23:25;;;;;;;150.30;145.47;;;8.40;99.90;;;;;;5002084;28;20453;-81
2023/01/14 10:25:55;;;;;;;220.30;213.50;;;8.30;99.90;;;;;;5001467;28;20461;-81
2023/01/14 10:28:24;;;;;;;288.00;279.30;;;8.30;99.90;;;;;;5002492;28;20969;-81
2023/01/14 10:30:52;;;;;;;265.43;257.03;;;8.30;99.90;;;;;;5002478;28;20505;-83
2023/01/14 10:33:22;;;;;;;324.37;314.20;;;8.30;99.90;;;;;;5002984;28;20454;-82
2023/01/14 10:35:55;;;;;;;301.67;292.37;;;8.30;99.90;;;;;;5004173;28;20928;-82
2023/01/14 10:38:25;;;;;;;238.60;231.43;;;8.40;99.90;;;;;;5003389;28;20903;-82
2023/01/14 10:40:58;;;;;;;361.67;349.70;;;8.40;99.90;;;;;;4999528;28;20474;-84
2023/01/14 10:43:32;;;;;;;314.77;305.07;;;8.40;99.90;;;;;;4989576;28;20462;-82
2023/01/14 10:45:59;;;;;;;386.83;374.33;;;8.30;99.90;;;;;;5002622;28;20454;-81
2023/01/14 10:48:27;;;;;;;153.93;149.03;;;8.40;99.90;;;;;;5002941;28;20460;-82
2023/01/14 10:50:54;;;;;;;125.00;120.97;;;8.50;99.90;;;;;;5003443;28;20486;-81
2023/01/14 10:53:23;;;;;;;137.40;132.73;;;8.50;99.90;;;;;;5002739;28;20460;-81
2023/01/14 10:55:56;;;;;;;109.20;105.30;;;8.50;99.90;;;;;;5000712;28;20461;-82
2023/01/14 10:58:30;;;;;;;124.07;119.13;;;8.50;99.90;;;;;;5002405;28;20480;-81
2023/01/14 11:01:03;;;;;;;145.37;140.53;;;8.60;99.90;;;;;;5002868;28;20478;-82
2023/01/14 11:03:34;;;;;;;184.63;178.30;;;8.60;99.90;;;;;;5003039;28;20450;-80
2023/01/14 11:06:03;;;;;;;240.43;232.67;;;8.60;99.90;;;;;;5002666;28;20873;-82
2023/01/14 11:08:35;;;;;;;190.17;184.00;;;8.70;99.90;;;;;;5002566;28;20991;-81
2023/01/14 11:11:06;;;;;;;203.73;197.17;;;8.70;99.90;;;;;;5002504;28;20513;-81
2023/01/14 11:13:36;;;;;;;249.23;241.23;;;8.70;99.90;;;;;;5002193;28;20454;-82
2023/01/14 11:16:03;;;;;;;264.27;255.60;;;8.70;99.90;;;;;;5002537;28;20458;-82
2023/01/14 11:18:32;;;;;;;261.97;253.57;;;8.70;99.90;;;;;;5002066;28;20450;-81
2023/01/14 11:21:15;;;;;;;504.27;482.52;;;8.70;99.90;;;;;;5001808;28;20939;-81
2023/01/14 11:23:43;;;;;;;411.60;396.23;;;8.80;99.90;;;;;;5001731;28;20199;-80
2023/01/14 11:26:13;;;;;;;346.63;334.67;;;8.80;99.90;;;;;;5001875;28;20455;-81
2023/01/14 11:28:45;;;;;;;320.87;310.10;;;8.80;99.90;;;;;;5002132;28;20454;-82
2023/01/14 11:31:12;;;;;;;297.33;286.90;;;8.90;99.90;;;;;;5001551;28;20630;-82
2023/01/14 11:33:49;;;;;;;253.33;244.57;;;8.90;99.90;;;;;;5001144;28;20458;-82
2023/01/14 11:36:25;;;;;;;252.70;244.37;;;9.00;99.90;;;;;;5001764;28;20485;-82
2023/01/14 11:38:53;;;;;;;266.80;257.83;;;9.10;99.90;;;;;;5002579;28;20468;-81
2023/01/14 11:41:38;;;;;;;241.90;234.10;;;9.10;99.90;;;;;;5001736;28;20470;-82
2023/01/14 11:44:17;;;;;;;260.57;251.97;;;9.10;99.90;;;;;;5001917;28;20466;-82
2023/01/14 11:46:45;;;;;;;276.67;267.47;;;9.10;99.90;;;;;;5001842;28;20803;-81
2023/01/14 11:49:18;;;;;;;283.73;273.80;;;9.20;99.90;;;;;;5001563;28;20460;-82
2023/01/14 11:51:57;;;;;;;312.17;301.40;;;9.20;99.90;;;;;;5001983;28;20478;-84
2023/01/14 11:54:25;;;;;;;286.00;275.70;;;9.20;99.90;;;;;;5001272;28;20458;-80
2023/01/14 11:56:53;;;;;;;286.33;276.67;;;9.30;99.90;;;;;;5000638;28;20477;-81
2023/01/14 11:59:27;;;;;;;285.30;275.50;;;9.30;99.90;;;;;;4999335;28;20454;-80
2023/01/14 12:01:58;;;;;;;326.30;314.93;;;9.30;99.90;;;;;;5000494;28;20565;-81
2023/01/14 12:04:29;;;;;;;366.37;353.27;;;9.30;99.90;;;;;;5001062;28;20949;-82
2023/01/14 12:07:00;;;;;;;389.60;375.43;;;9.30;99.90;;;;;;5001160;28;20454;-80
2023/01/14 12:09:45;;;;;;;350.40;338.00;;;9.20;99.90;;;;;;5001165;28;20457;-81
2023/01/14 12:12:17;;;;;;;386.17;372.13;;;9.30;99.90;;;;;;5000942;28;20478;-80
2023/01/14 12:17:39;;;;;;;403.57;388.67;;;9.30;99.90;;;;;;5001339;28;20564;-80
2023/01/14 12:20:11;;;;;;;402.70;387.87;;;9.30;99.90;;;;;;4999702;28;20470;-81
2023/01/14 12:22:47;;;;;;;410.97;395.47;;;9.30;99.90;;;;;;5000604;28;20451;-80
2023/01/14 12:25:20;;;;;;;397.67;382.87;;;9.20;99.90;;;;;;5002452;28;20777;-80
2023/01/14 12:27:59;;;;;;;409.40;394.07;;;9.40;99.90;;;;;;5001232;28;20454;-81
2023/01/14 12:30:44;;;;;;;428.30;412.07;;;9.30;99.90;;;;;;5001470;28;20478;-81
2023/01/14 12:33:19;;;;;;;431.77;415.50;;;9.30;99.90;;;;;;5000876;28;20450;-81
2023/01/14 12:35:52;;;;;;;405.80;390.90;;;9.30;99.90;;;;;;5000302;28;20654;-82
2023/01/14 12:46:44;;;;;;;385.77;371.63;;;9.20;99.90;;;;;;4981404;28;20442;-81
2023/01/14 12:49:11;;;;;;;383.70;369.47;;;9.30;99.90;;;;;;5000708;28;20458;-81
2023/01/14 12:51:41;;;;;;;404.77;389.63;;;9.30;99.90;;;;;;4999675;28;20482;-78
2023/01/14 12:54:20;;;;;;;414.83;399.23;;;9.40;99.90;;;;;;5000544;28;20449;-81
2023/01/14 12:56:53;;;;;;;409.53;394.00;;;9.20;99.90;;;;;;5000393;28;20446;-82
2023/01/14 12:59:27;;;;;;;408.27;392.77;;;9.30;99.90;;;;;;5001338;28;20452;-83
2023/01/14 13:01:57;;;;;;;417.73;401.53;;;9.30;99.90;;;;;;5000907;28;20492;-82
2023/01/14 13:04:28;;;;;;;415.80;399.87;;;9.30;99.90;;;;;;5001296;28;20458;-82
2023/01/14 13:06:58;;;;;;;401.00;386.20;;;9.40;99.90;;;;;;5000843;28;20454;-82
2023/01/14 13:09:29;;;;;;;431.43;414.63;;;9.40;99.90;;;;;;5001664;28;20454;-82
2023/01/14 13:11:56;;;;;;;432.23;415.33;;;9.30;99.90;;;;;;5000813;28;20882;-84
2023/01/14 13:14:42;;;;;;;414.33;398.33;;;9.40;99.90;;;;;;4998610;28;20530;-79
2023/01/14 13:17:19;;;;;;;452.63;434.10;;;9.40;99.90;;;;;;4999854;28;20446;-81
2023/01/14 13:19:51;;;;;;;453.60;435.23;;;9.40;99.90;;;;;;5004087;28;20985;-82
2023/01/14 13:22:40;;;;;;;471.83;451.97;;;9.40;99.90;;;;;;5004547;28;20457;-82
2023/01/14 13:25:20;;;;;;;447.63;429.37;;;9.50;99.90;;;;;;4999296;28;20480;-82
2023/01/14 13:27:47;;;;;;;467.17;447.67;;;9.60;99.90;;;;;;5004779;28;20516;-83
2023/01/14 13:30:44;;;;;;;483.73;463.80;;;9.50;99.90;;;;;;5004488;28;20513;-82